Oakland, MD

6:41 AM EDT on October 24, 2017 (GMT -0400)
Oakland

Weather History for K2G4 - March, 2013

Change the Weather History Date:

Thursday, March 7, 2013

  Actual Average (KMGW) Record (KMGW)
Temperature  
Mean Temperature 29 °F -  
Max Temperature 32 °F 47 °F 79 °F (1983)
Min Temperature 26 °F 29 °F 6 °F (1960)
Degree Days  
Heating Degree Days 36    
Moisture  
Dew Point 28 °F    
Average Humidity 99    
Maximum Humidity 100    
Minimum Humidity 86    
Precipitation  
Precipitation 0.00 in - - ()
Sea Level Pressure  
Sea Level Pressure 30.08 in    
Wind  
Wind Speed 8 mph (WNW)    
Max Wind Speed 12 mph    
Max Gust Speed 18 mph    
Visibility 5 miles    
Events Fog    
Averages and records for this station are not official NWS values.
T = Trace of Precipitation, MM = Missing Value Source: NWS Daily Summary

Daily Weather History Graph

Daily Weather History Graph

Search for Another Location

Airport or City:

Trip Planner

Search our weather history database for the weather conditions in past years. The results will help you decide how hot, cold, wet, or windy it might be!

Date:

Astronomy

Mar. 07, 2013 Rise Set
Actual Time 6:40 AM EST 6:16 PM EST
Civil Twilight 6:14 AM EST 6:43 PM EST
Nautical Twilight 5:42 AM EST 7:14 PM EST
Astronomical Twilight 5:11 AM EST 7:45 PM EST
Moon 3:38 AM EST (3/7) 2:02 PM EST (3/7)
Length of Visible Light 12h 29m
Length of Day
11h 35m
Waning Crescent, 20% of the Moon is Illuminated
Mar 7
Waning Crescent
Mar 11
New
Mar 19
First Quarter
Mar 27
Full
Apr 3
Last Quarter

Hourly Weather History & Observations

Time (EST) Temp. Windchill Dew Point Humidity Pressure Visibility Wind Dir Wind Speed Gust Speed Precip Events Conditions
12:05 AM 28.4 °F 22.2 °F 26.6 °F 93% 29.99 in 10.0 mi NW 5.8 mph - N/A   Overcast
12:25 AM 28.4 °F 21.2 °F 28.4 °F 100% 29.99 in 10.0 mi WNW 6.9 mph - N/A   Overcast
12:45 AM 28.4 °F 22.2 °F 28.4 °F 100% 29.99 in 10.0 mi WNW 5.8 mph - N/A   Overcast
1:05 AM 28.4 °F 22.2 °F 28.4 °F 100% 30.00 in 10.0 mi West 5.8 mph - N/A   Overcast
1:25 AM 28.4 °F 21.2 °F 28.4 °F 100% 30.01 in 10.0 mi West 6.9 mph - N/A   Overcast
1:45 AM 28.4 °F 20.4 °F 28.4 °F 100% 30.00 in 10.0 mi West 8.1 mph 17.3 mph N/A   Overcast
2:05 AM 28.4 °F 20.4 °F 28.4 °F 100% 30.00 in 7.0 mi WNW 8.1 mph - N/A   Overcast
2:25 AM 28.4 °F 21.2 °F 28.4 °F 100% 30.00 in 4.0 mi WNW 6.9 mph 17.3 mph N/A   Overcast
2:45 AM 28.4 °F 19.7 °F 28.4 °F 100% 30.00 in 2.5 mi WNW 9.2 mph - N/A   Overcast
3:05 AM 28.4 °F 20.4 °F 28.4 °F 100% 29.99 in 4.0 mi WNW 8.1 mph - N/A   Overcast
3:25 AM 28.4 °F 20.4 °F 28.4 °F 100% 30.00 in 5.0 mi WNW 8.1 mph - N/A   Overcast
4:05 AM 28.4 °F 19.1 °F 28.4 °F 100% 30.01 in 4.0 mi WNW 10.4 mph 18.4 mph N/A   Overcast
4:25 AM 28.4 °F 19.7 °F 28.4 °F 100% 30.01 in 5.0 mi WNW 9.2 mph - N/A   Overcast
4:45 AM 28.4 °F 18.5 °F 28.4 °F 100% 30.02 in 5.0 mi WNW 11.5 mph 18.4 mph N/A   Overcast
5:05 AM 28.4 °F 21.2 °F 28.4 °F 100% 30.01 in 5.0 mi WNW 6.9 mph 17.3 mph N/A   Overcast
5:25 AM 28.4 °F 20.4 °F 28.4 °F 100% 30.01 in 7.0 mi WNW 8.1 mph - N/A   Overcast
5:45 AM 28.4 °F 19.7 °F 28.4 °F 100% 30.02 in 7.0 mi WNW 9.2 mph - N/A   Overcast
6:05 AM 28.4 °F 22.2 °F 28.4 °F 100% 30.03 in 5.0 mi NW 5.8 mph - N/A   Overcast
6:25 AM 28.4 °F 21.2 °F 28.4 °F 100% 30.03 in 7.0 mi WNW 6.9 mph - N/A   Overcast
6:45 AM 28.4 °F 21.2 °F 28.4 °F 100% 30.04 in 5.0 mi WNW 6.9 mph - N/A   Overcast
8:05 AM 28.4 °F 20.4 °F 28.4 °F 100% 30.08 in 7.0 mi West 8.1 mph - N/A   Overcast
8:25 AM 28.4 °F 20.4 °F 28.4 °F 100% 30.08 in 7.0 mi WNW 8.1 mph - N/A   Overcast
8:45 AM 28.4 °F 21.2 °F 28.4 °F 100% 30.09 in 4.0 mi WNW 6.9 mph - N/A   Overcast
9:05 AM 26.6 °F 17.5 °F 26.6 °F 100% 30.09 in 4.0 mi WNW 9.2 mph 17.3 mph N/A   Overcast
9:25 AM 26.6 °F 18.2 °F 26.6 °F 100% 30.09 in 0.5 mi WNW 8.1 mph 16.1 mph N/A Fog Light Freezing Fog
9:45 AM 28.4 °F 20.4 °F 28.4 °F 100% 30.09 in 0.2 mi WNW 8.1 mph 16.1 mph N/A Fog Light Freezing Fog
10:05 AM 28.4 °F 19.7 °F 28.4 °F 100% 30.10 in 0.2 mi West 9.2 mph - N/A Fog Light Freezing Fog
10:25 AM 28.4 °F 19.7 °F 28.4 °F 100% 30.10 in 0.2 mi West 9.2 mph 17.3 mph N/A Fog Light Freezing Fog
10:45 AM 28.4 °F 19.1 °F 28.4 °F 100% 30.10 in 0.2 mi WNW 10.4 mph - N/A Fog Light Freezing Fog
11:05 AM 28.4 °F 18.5 °F 28.4 °F 100% 30.10 in 3.0 mi WNW 11.5 mph - N/A   Overcast
11:25 AM 28.4 °F 19.7 °F 28.4 °F 100% 30.11 in 4.0 mi NW 9.2 mph 16.1 mph N/A   Overcast
11:45 AM 28.4 °F 19.7 °F 28.4 °F 100% 30.11 in 4.0 mi WNW 9.2 mph 17.3 mph N/A   Overcast
12:05 PM 28.4 °F 20.4 °F 28.4 °F 100% 30.11 in 4.0 mi WNW 8.1 mph - N/A   Overcast
12:25 PM 30.2 °F 21.9 °F 30.2 °F 100% 30.11 in 10.0 mi WNW 9.2 mph - N/A   Overcast
12:45 PM 30.2 °F 22.6 °F 26.6 °F 86% 30.11 in 10.0 mi WNW 8.1 mph - N/A   Overcast
1:05 PM 30.2 °F 21.3 °F 26.6 °F 86% 30.11 in 7.0 mi WNW 10.4 mph 18.4 mph N/A   Overcast
1:25 PM 30.2 °F 21.9 °F 28.4 °F 93% 30.10 in 4.0 mi NW 9.2 mph 17.3 mph N/A   Overcast
1:45 PM 30.2 °F 21.9 °F 28.4 °F 93% 30.10 in 2.5 mi WNW 9.2 mph - N/A   Overcast
2:05 PM 28.4 °F 19.7 °F 28.4 °F 100% 30.10 in 1.0 mi NNW 9.2 mph - N/A   Overcast
2:25 PM 30.2 °F 22.6 °F 30.2 °F 100% 30.10 in 2.5 mi NW 8.1 mph - N/A   Overcast
2:45 PM 30.2 °F 21.9 °F 28.4 °F 93% 30.10 in 10.0 mi WNW 9.2 mph - N/A   Overcast
3:05 PM 30.2 °F 21.9 °F 28.4 °F 93% 30.10 in 1.8 mi NW 9.2 mph - N/A   Overcast
3:25 PM 30.2 °F 24.3 °F 30.2 °F 100% 30.10 in 1.8 mi WNW 5.8 mph - N/A   Overcast
3:45 PM 30.2 °F 21.9 °F 30.2 °F 100% 30.10 in 10.0 mi WNW 9.2 mph - N/A   Overcast
4:05 PM 32.0 °F 23.0 °F 30.2 °F 93% 30.10 in 5.0 mi WNW 11.5 mph - N/A   Overcast
4:25 PM 30.2 °F 21.9 °F 28.4 °F 93% 30.10 in 10.0 mi WNW 9.2 mph - N/A   Overcast
5:05 PM 30.2 °F 21.3 °F 28.4 °F 93% 30.11 in 10.0 mi NW 10.4 mph 16.1 mph N/A   Overcast
5:25 PM 30.2 °F 21.3 °F 30.2 °F 100% 30.11 in 10.0 mi WNW 10.4 mph 17.3 mph N/A   Overcast
5:45 PM 30.2 °F 22.6 °F 30.2 °F 100% 30.12 in 7.0 mi WNW 8.1 mph 17.3 mph N/A   Overcast
6:05 PM 28.4 °F 19.7 °F 28.4 °F 100% 30.13 in 10.0 mi WNW 9.2 mph 17.3 mph N/A   Overcast
6:25 PM 28.4 °F 22.2 °F 28.4 °F 100% 30.13 in 10.0 mi WNW 5.8 mph 18.4 mph N/A   Overcast
6:45 PM 28.4 °F 19.1 °F 28.4 °F 100% 30.14 in 10.0 mi WNW 10.4 mph 16.1 mph N/A   Overcast
9:05 PM 28.4 °F 20.4 °F 28.4 °F 100% 30.14 in 2.5 mi NW 8.1 mph - N/A   Overcast
9:25 PM 28.4 °F 21.2 °F 28.4 °F 100% 30.14 in 1.2 mi NW 6.9 mph - N/A   Overcast
9:45 PM 28.4 °F 21.2 °F 28.4 °F 100% 30.14 in 1.0 mi NW 6.9 mph - N/A   Overcast
10:05 PM 28.4 °F 21.2 °F 28.4 °F 100% 30.14 in 0.5 mi NNW 6.9 mph - N/A Fog Light Freezing Fog
10:30 PM 28.4 °F 21.2 °F 28.4 °F 100% 30.14 in 0.8 mi NW 6.9 mph - N/A   Overcast
10:50 PM 26.6 °F 19.1 °F 26.6 °F 100% 30.15 in 2.5 mi NW 6.9 mph 17.3 mph N/A   Overcast
11:10 PM 26.6 °F 17.5 °F 26.6 °F 100% 30.14 in 5.0 mi NW 9.2 mph 17.3 mph N/A   Overcast
11:30 PM 26.6 °F 18.2 °F 26.6 °F 100% 30.14 in 3.0 mi NW 8.1 mph - N/A   Overcast
11:50 PM 26.6 °F 20.0 °F 26.6 °F 100% 30.14 in 3.0 mi NW 5.8 mph - N/A   Overcast